• Join FlightAware (Why Join?)
  • Login
  • US Flag 
12:56PM EST


 

Airport Tracker/Info


-or-


 

Live Flight TrackerFlight Track Log ✈ SWA1718 ✈ 19-Apr-2013 ✈ KAMA - KDEN

Flight Track Log - Related Links

Times and Time Zones

All times are in EDT time to prevent confusion due to time zone crossing. See the SWA1718 flight status page for this flight to view local times or setup timezone preferences in your user account.

Time Position Orientation Groundspeed Altitude Reporting Facility
EDT Latitude Longitude Course Direction KTS MPH feet Rate Location/Type
05:04PM 35.3650 -101.8342 340° North 274 315 10,600  Level Albuquerque Center
05:05PM 35.4706 -101.8783 341° North 330 380 12,600 2,280 Climbing Albuquerque Center
05:06PM 35.5608 -101.9183 340° North 345 397 15,400 2,340 Climbing Albuquerque Center
05:07PM 35.6878 -101.9162 341° North  Level FlightAware Approximate
05:07PM 35.6514 -101.9578 341° North 345 397 17,500  Level Albuquerque Center
05:08PM 35.7835 -101.9567 342° North  Level FlightAware Approximate
05:08PM 35.7456 -101.9981 341° North 353 406 19,600  Level Albuquerque Center
05:09PM 35.8414 -102.0392 341° North 361 415 21,800 2,040 Climbing Albuquerque Center
05:10PM 35.9394 -102.0822 340° North 370 426 23,900 1,980 Climbing Albuquerque Center
05:11PM 36.0597 -102.1342 341° North 378 435 25,900 1,500 Climbing Albuquerque Center
05:12PM 36.1653 -102.1775 342° North 393 452 27,000 1,500 Climbing Albuquerque Center
05:13PM 36.2711 -102.2244 340° North 403 464 29,100 1,980 Climbing Albuquerque Center
05:14PM 36.3717 -102.2681 341° North 390 449 31,200 1,620 Climbing Albuquerque Center
05:15PM 36.4714 -102.3125 340° North 382 440 32,500 1,200 Climbing Albuquerque Center
05:16PM 36.5719 -102.3567 341° North 383 441 33,700 720 Climbing Albuquerque Center
05:17PM 36.6936 -102.4106 340° North 386 444 34,100 180 Climbing Albuquerque Center
05:18PM 36.7964 -102.4550 341° North 390 449 34,100  Level Albuquerque Center
05:20PM 36.8983 -102.5011 340° North 390 449 34,100  Level Albuquerque Center
05:21PM 37.0022 -102.5483 340° North 397 457 34,100  Level Albuquerque Center
05:22PM 37.1167 -102.5994 340° North 391 450 34,100  Level Albuquerque Center
05:23PM 37.2144 -102.6428 341° North 390 449 34,100  Level Albuquerque Center
05:24PM 37.3289 -102.6944 340° North 391 450 34,100  Level Albuquerque Center
05:25PM 37.4269 -102.7386 340° North 391 450 34,100  Level Albuquerque Center
05:26PM 37.5392 -102.7878 341° North 386 444 34,100  Level Albuquerque Center
05:27PM 37.6378 -102.8175 347° North 382 440 34,100  Level Albuquerque Center
05:28PM 37.7547 -102.8553 346° North 386 444 34,100  Level Denver Center
05:29PM 37.8578 -102.9203 334° Northwest 376 433 34,100  Level Denver Center
05:30PM 37.9403 -102.9922 325° Northwest 376 433 34,100  Level Denver Center
05:31PM 38.0381 -103.0736 327° Northwest 376 433 34,100  Level Denver Center
05:32PM 38.1211 -103.1433 327° Northwest 376 433 34,100  Level Denver Center
05:33PM 38.2178 -103.2258 326° Northwest 376 433 34,100  Level Denver Center
05:34PM 38.3017 -103.2972 326° Northwest 378 435 34,100  Level Denver Center
05:35PM 38.4011 -103.3803 327° Northwest 378 435 34,100  Level Denver Center
05:36PM 38.4844 -103.4536 325° Northwest 381 438 34,100  Level Denver Center
05:37PM 38.5811 -103.5356 326° Northwest 379 436 34,100  Level Denver Center
05:38PM 38.6653 -103.6081 326° Northwest 382 440 34,100 -1,140 Level Denver Center
05:39PM 38.7636 -103.6933 326° Northwest 382 440 31,800 -2,520 Descending Denver Center
05:40PM 38.8542 -103.7697 327° Northwest 383 441 28,900 -2,580 Descending Denver Center
05:41PM 38.9394 -103.8436 326° Northwest 368 423 26,500 -2,280 Descending Denver Center
05:42PM 39.0189 -103.9128 326° Northwest 347 399 24,300 -2,160 Descending Denver Center
05:43PM 39.0947 -103.9817 325° Northwest 335 386 22,100 -2,040 Descending Denver Center
05:44PM 39.1683 -104.0442 327° Northwest 318 366 20,100 -1,740 Descending Denver Center
05:45PM 39.2533 -104.1217 325° Northwest 328 377 18,600 -1,620 Descending Denver Center
05:47PM 39.2833 -104.2258 290° West 318 366 16,800 -1,740 Descending Denver Center
05:48PM 39.3406 -104.3089 312° West 286 329 15,100 -1,800 Descending Denver Center
05:49PM 39.3919 -104.3858 311° West 282 325 13,100 -1,860 Descending Denver Center
05:50PM 39.4453 -104.4583 314° West 279 321 11,300 -1,740 Descending Denver Center
05:51PM 39.5164 -104.5189 327° Northwest 295 339 9,600 -1,680 Descending Denver Center
05:52PM 39.5856 -104.5561 337° Northwest 276 318 7,900 -1,260 Descending Denver Center
05:53PM 39.6586 -104.5942 338° Northwest 256 295 7,100 -420 Descending Denver Center
05:54PM 39.7161 -104.6250 338° Northwest 226 260 7,100 -300 Level Denver Center
05:55PM 39.7769 -104.6431 347° North 206 237 6,600 -720 Descending Denver Center
05:56PM 39.8211 -104.6425 North 162 186 5,700 -600 Descending Denver Center
05:57PM 39.8497 -104.6422 360° North 120 138 5,400 -300 Descending Denver Center
05:59PM 39.8500 -104.6667 North  Level FlightAware Approximate
06:06PM 39.8617 -104.6732 North  Level Estimated
06:07PM 39.8617 -104.6732 North  Level Estimated